Iron Brooke — V7KL3 — position and weather

sailwx.info

Track history (hours):
 
Tides and Currents Weather Stations Pressure Air Temp Water Temp Dewpoint Dewpoint Depression Visibility Wind Speed Wind Dir Waves Ship Positions

Iron Brooke

Last reported at 2014-Jun-26 14:05 UTC. Time now 2014-Jul-23 03:21 UTC.
Position S 34°35' E 024°49'.
Warning: this ship's position is 26 days out of date.

Length 229 m; draft 9.8 m.

Type: Cargo ship. MMSI: 538002640.

Date/timePositionNaut miles runAvg speedWind from/ knotsBaromVisibWave heightAir tempDewpointWater temp
2014-Jun-26 14:05S 34°35' E 024°49'124 7.3
2014-Jun-25 21:07S 33°50' E 027°08'3210.5
2014-Jun-25 18:05S 33°31' E 027°39'8 9.6
2014-Jun-25 17:15S 33°25' E 027°46'7 9.4
2014-Jun-25 16:28S 33°21' E 027°53'21511.4
2014-Jun-24 21:33S 30°40' E 030°42'1212.0
2014-Jun-24 20:33S 30°30' E 030°49'1211.5
2014-Jun-24 19:33S 30°20' E 030°56'1110.6
2014-Jun-24 18:33S 30°11' E 031°03'1110.8
2014-Jun-24 17:33S 30°02' E 031°10'1010.0
2014-Jun-24 16:33S 29°53' E 031°14'8 8.5
2014-Jun-24 15:33S 29°44' E 031°15'3 3.2
2014-Jun-24 14:30S 29°43' E 031°11'0 0.0
2014-Jun-24 13:30S 29°43' E 031°11'0 0.0
2014-Jun-24 12:30S 29°43' E 031°11'0 0.0
2014-Jun-24 11:30S 29°43' E 031°11'0 0.0
2014-Jun-24 10:30S 29°43' E 031°11'0 0.1
2014-Jun-24 09:30S 29°43' E 031°11'0 0.1
2014-Jun-24 08:30S 29°43' E 031°11'0 0.0
2014-Jun-24 07:30S 29°43' E 031°11'0 0.0
2014-Jun-24 06:30S 29°43' E 031°11'0 0.0
2014-Jun-24 05:30S 29°43' E 031°11'0 0.0
2014-Jun-24 04:30S 29°43' E 031°11'0 0.1
2014-Jun-24 03:30S 29°43' E 031°11'0 0.0
2014-Jun-24 02:30S 29°43' E 031°11'0 0.0
2014-Jun-24 01:30S 29°43' E 031°11'0 0.1
2014-Jun-24 00:24S 29°43' E 031°11'0 0.1
2014-Jun-23 23:30S 29°43' E 031°11'0 0.0
2014-Jun-23 22:30S 29°43' E 031°11'0 0.0
2014-Jun-23 21:30S 29°43' E 031°11'0 0.0
2014-Jun-23 20:30S 29°43' E 031°11'0 0.0
2014-Jun-23 19:30S 29°43' E 031°11'0 0.0
2014-Jun-23 18:30S 29°43' E 031°11'0 0.0
2014-Jun-23 17:30S 29°43' E 031°11'0 0.0
2014-Jun-23 16:30S 29°43' E 031°11'0 0.0
2014-Jun-23 15:30S 29°43' E 031°11'0 0.1
2014-Jun-23 14:30S 29°43' E 031°11'0 0.0
2014-Jun-23 12:30S 29°43' E 031°11'0 0.0
2014-Jun-23 11:30S 29°43' E 031°11'0 0.0
2014-Jun-23 10:30S 29°43' E 031°11'0 0.0
2014-Jun-23 09:30S 29°43' E 031°11'0 0.0
2014-Jun-23 08:30S 29°43' E 031°11'0 0.0
2014-Jun-23 07:30S 29°43' E 031°11'0 0.1
2014-Jun-23 06:30S 29°43' E 031°11'0 0.0
2014-Jun-23 05:30S 29°43' E 031°11'0 0.0
2014-Jun-23 04:30S 29°43' E 031°11'0 0.0
2014-Jun-23 03:30S 29°43' E 031°11'0 0.0
2014-Jun-23 02:30S 29°43' E 031°11'0 0.0
2014-Jun-23 01:30S 29°43' E 031°11'0 0.0
2014-Jun-23 00:24S 29°43' E 031°11'0 0.0
2014-Jun-22 23:30S 29°43' E 031°11'0 0.0
2014-Jun-22 22:30S 29°43' E 031°11'0 0.0
2014-Jun-22 21:24S 29°43' E 031°11'0 0.0
2014-Jun-22 20:24S 29°43' E 031°11'0 0.0
2014-Jun-22 19:30S 29°43' E 031°11'0 0.0
2014-Jun-22 18:30S 29°43' E 031°11'0 0.0
2014-Jun-22 17:30S 29°43' E 031°11'0 0.0
2014-Jun-22 16:30S 29°43' E 031°11'0 0.0
2014-Jun-22 15:30S 29°43' E 031°11'0 0.0
2014-Jun-22 14:30S 29°43' E 031°11'0 0.0
2014-Jun-22 13:24S 29°43' E 031°11'0 0.0
2014-Jun-22 12:30S 29°43' E 031°11'0 0.0
2014-Jun-22 11:30S 29°43' E 031°11'0 0.0
2014-Jun-22 10:30S 29°43' E 031°11'0 0.0
2014-Jun-22 09:30S 29°43' E 031°11'0 0.0
2014-Jun-22 08:30S 29°43' E 031°11'0 0.0
2014-Jun-22 07:30S 29°43' E 031°11'0 0.0
2014-Jun-22 06:30S 29°43' E 031°11'0 0.0
2014-Jun-22 05:30S 29°43' E 031°11'0 0.0
2014-Jun-22 04:30S 29°44' E 031°11'0 0.0
2014-Jun-22 03:30S 29°44' E 031°11'0 0.0
2014-Jun-22 02:30S 29°44' E 031°11'0 0.0
2014-Jun-22 01:30S 29°44' E 031°11'0 0.0
2014-Jun-22 00:30S 29°44' E 031°11'0 0.0
2014-Jun-21 23:24S 29°43' E 031°11'0 0.0
2014-Jun-21 21:30S 29°43' E 031°11'0 0.0
2014-Jun-21 20:24S 29°43' E 031°11'0 0.0
2014-Jun-21 19:30S 29°43' E 031°11'0 0.0
2014-Jun-21 18:30S 29°43' E 031°11'0 0.0
2014-Jun-21 17:30S 29°43' E 031°11'0 0.0
2014-Jun-21 16:30S 29°43' E 031°11'0 0.0
2014-Jun-21 15:24S 29°43' E 031°11'0 0.0
2014-Jun-21 14:30S 29°43' E 031°11'0 0.0
2014-Jun-21 13:30S 29°43' E 031°11'0 0.0
2014-Jun-21 12:30S 29°43' E 031°11'0 0.0
2014-Jun-21 11:30S 29°43' E 031°11'0 0.0
2014-Jun-21 10:24S 29°43' E 031°11'0 0.0
2014-Jun-21 09:30S 29°43' E 031°11'0 0.0
2014-Jun-21 08:30S 29°43' E 031°11'0 0.0
2014-Jun-21 07:30S 29°43' E 031°11'0 0.0
2014-Jun-21 06:30S 29°43' E 031°11'0 0.0
2014-Jun-21 05:30S 29°43' E 031°11'0 0.0
2014-Jun-21 04:30S 29°43' E 031°11'0 0.0
2014-Jun-21 03:30S 29°43' E 031°11'0 0.0
2014-Jun-21 02:30S 29°43' E 031°11'0 0.0
2014-Jun-21 01:30S 29°43' E 031°11'0 0.0
2014-Jun-21 00:30S 29°43' E 031°11'0 0.0
2014-Jun-20 23:30S 29°43' E 031°11'0 0.0
2014-Jun-20 22:30S 29°43' E 031°11'0 0.0
2014-Jun-20 21:30S 29°43' E 031°11'0 0.0
2014-Jun-20 20:30S 29°43' E 031°11'0 0.0
2014-Jun-20 19:30S 29°43' E 031°11'0 0.0
2014-Jun-20 18:30S 29°43' E 031°11'0 0.0
2014-Jun-20 17:30S 29°43' E 031°11'0 0.0
2014-Jun-20 16:30S 29°43' E 031°11'0 0.0
2014-Jun-20 15:30S 29°43' E 031°11'0 0.0
2014-Jun-20 14:30S 29°43' E 031°11'0 0.0
2014-Jun-20 13:30S 29°43' E 031°11'0 0.0
2014-Jun-20 12:30S 29°43' E 031°11'0 0.0
2014-Jun-20 11:30S 29°43' E 031°11'0 0.0
2014-Jun-20 10:30S 29°43' E 031°11'0 0.0
2014-Jun-20 09:30S 29°43' E 031°11'0 0.0
2014-Jun-20 08:30S 29°43' E 031°11'0 0.0
2014-Jun-20 07:30S 29°43' E 031°11'0 0.0
2014-Jun-20 06:30S 29°43' E 031°11'0 0.1
2014-Jun-20 05:30S 29°43' E 031°11'0 0.0
2014-Jun-20 04:24S 29°43' E 031°11'0 0.0
2014-Jun-20 03:30S 29°43' E 031°11'0 0.1
2014-Jun-20 02:30S 29°43' E 031°11'0 0.1
2014-Jun-20 01:30S 29°43' E 031°11'0 0.1
2014-Jun-20 00:30S 29°43' E 031°11'0 0.1
2014-Jun-19 23:30S 29°43' E 031°11'0 0.0
2014-Jun-19 22:30S 29°43' E 031°11'0 0.0
2014-Jun-19 21:30S 29°43' E 031°11'0 0.0
2014-Jun-19 20:30S 29°43' E 031°11'0 0.1
2014-Jun-19 19:30S 29°43' E 031°11'0 0.0
2014-Jun-19 18:30S 29°43' E 031°11'0 0.1
2014-Jun-19 17:30S 29°43' E 031°11'0 0.1
2014-Jun-19 16:30S 29°43' E 031°11'0 0.1
2014-Jun-19 15:30S 29°43' E 031°11'0 0.1
2014-Jun-19 14:30S 29°43' E 031°11'0 0.0
2014-Jun-19 13:30S 29°43' E 031°11'0 0.0
2014-Jun-19 12:30S 29°43' E 031°11'0 0.1
2014-Jun-19 11:30S 29°43' E 031°11'0 0.0
2014-Jun-19 10:30S 29°43' E 031°11'0 0.1
2014-Jun-19 09:30S 29°43' E 031°11'0 0.0
2014-Jun-19 08:30S 29°43' E 031°11'0 0.1
2014-Jun-19 07:30S 29°43' E 031°11'0 0.0
2014-Jun-19 06:30S 29°43' E 031°11'0 0.0
2014-Jun-19 05:30S 29°43' E 031°11'0 0.0
2014-Jun-19 04:30S 29°43' E 031°11'0 0.0
2014-Jun-19 02:30S 29°43' E 031°11'0 0.0
2014-Jun-19 01:30S 29°43' E 031°11'0 0.0
2014-Jun-19 00:30S 29°43' E 031°11'0 0.0
2014-Jun-18 23:30S 29°43' E 031°11'0 0.0
2014-Jun-18 22:30S 29°43' E 031°11'0 0.0
2014-Jun-18 21:33S 29°43' E 031°11'0 0.0
2014-Jun-18 20:30S 29°43' E 031°11'0 0.1
2014-Jun-18 19:30S 29°43' E 031°11'0 0.1
2014-Jun-18 18:30S 29°43' E 031°11'0 0.0
2014-Jun-18 17:30S 29°43' E 031°11'0 0.4
2014-Jun-18 16:30S 29°44' E 031°11'0 0.0
2014-Jun-18 15:30S 29°44' E 031°11'0 0.0
2014-Jun-18 14:30S 29°44' E 031°11'0 0.0
2014-Jun-18 13:06S 29°44' E 031°11'0 0.0
2014-Jun-18 12:30S 29°44' E 031°11'0 0.0
2014-Jun-18 11:24S 29°43' E 031°11'0 0.0
2014-Jun-18 10:30S 29°44' E 031°11'0 0.1
2014-Jun-18 09:30S 29°43' E 031°11'0 0.0
2014-Jun-18 08:30S 29°43' E 031°11'0 0.0
2014-Jun-18 07:30S 29°43' E 031°11'0 0.0
2014-Jun-18 06:30S 29°43' E 031°11'0 0.0
2014-Jun-18 05:30S 29°43' E 031°11'0 0.0
2014-Jun-18 04:30S 29°43' E 031°11'0 0.0
2014-Jun-18 03:30S 29°43' E 031°11'0 0.0
2014-Jun-18 02:30S 29°43' E 031°11'0 0.0
2014-Jun-18 01:30S 29°43' E 031°11'0 0.1
2014-Jun-18 00:30S 29°43' E 031°11'0 0.0
2014-Jun-17 23:30S 29°43' E 031°11'0 0.0
2014-Jun-17 22:24S 29°43' E 031°11'0 0.0
2014-Jun-17 21:30S 29°43' E 031°11'0 0.0
2014-Jun-17 20:30S 29°43' E 031°11'0 0.0
2014-Jun-17 19:30S 29°43' E 031°11'0 0.0
2014-Jun-17 18:30S 29°43' E 031°11'0 0.0
2014-Jun-17 17:30S 29°43' E 031°11'0 0.1
2014-Jun-17 16:30S 29°43' E 031°11'0 0.1
2014-Jun-17 15:33S 29°43' E 031°11'4 4.3
2014-Jun-17 14:33S 29°43' E 031°16'8 7.7
2014-Jun-17 13:33S 29°37' E 031°22'4 3.5
2014-Jun-17 12:19S 29°34' E 031°25'0 0.1
2014-Jun-17 11:31S 29°34' E 031°25'0 0.0
2014-Jun-17 10:25S 29°34' E 031°25'0 0.1
2014-Jun-17 09:31S 29°34' E 031°25'0 0.1
2014-Jun-17 08:31S 29°34' E 031°25'0 0.0
2014-Jun-17 07:31S 29°34' E 031°25'0 0.0
2014-Jun-17 06:31S 29°34' E 031°25'0 0.1
2014-Jun-17 05:31S 29°34' E 031°25'0 0.0
2014-Jun-17 04:31S 29°34' E 031°25'0 0.0
2014-Jun-17 03:31S 29°34' E 031°25'0 0.0
2014-Jun-17 02:31S 29°34' E 031°25'0 0.1
2014-Jun-17 01:31S 29°34' E 031°25'0 0.0
2014-Jun-17 00:31S 29°34' E 031°25'0 0.0
2014-Jun-16 23:31S 29°34' E 031°25'0 0.1
2014-Jun-16 22:31S 29°34' E 031°25'0 0.0
2014-Jun-16 21:31S 29°34' E 031°25'0 0.0
2014-Jun-16 20:31S 29°34' E 031°25'0 0.0
2014-Jun-16 19:25S 29°34' E 031°25'0 0.0
2014-Jun-16 18:25S 29°34' E 031°25'0 0.0
2014-Jun-16 17:31S 29°34' E 031°25'0 0.0
2014-Jun-16 16:31S 29°34' E 031°25'0 0.0
2014-Jun-16 15:31S 29°34' E 031°25'0 0.0
2014-Jun-16 14:31S 29°34' E 031°25'  
Track history (hours):
 
Tides and Currents Weather Stations Pressure Air Temp Water Temp Dewpoint Dewpoint Depression Visibility Wind Speed Wind Dir Waves Ship Positions

Iron Brooke

Last reported at 2014-Jun-26 14:05 UTC. Time now 2014-Jul-23 03:21 UTC.
Position S 34°35' E 024°49'.
Warning: this ship's position is 26 days out of date.

Length 229 m; draft 9.8 m.

Type: Cargo ship. MMSI: 538002640.

Date/timePositionNaut miles runAvg speedWind from/ knotsBaromVisibWave heightAir tempDewpointWater temp
2014-Jun-26 14:05S 34°35' E 024°49'124 7.3
2014-Jun-25 21:07S 33°50' E 027°08'3210.5
2014-Jun-25 18:05S 33°31' E 027°39'8 9.6
2014-Jun-25 17:15S 33°25' E 027°46'7 9.4
2014-Jun-25 16:28S 33°21' E 027°53'21511.4
2014-Jun-24 21:33S 30°40' E 030°42'1212.0
2014-Jun-24 20:33S 30°30' E 030°49'1211.5
2014-Jun-24 19:33S 30°20' E 030°56'1110.6
2014-Jun-24 18:33S 30°11' E 031°03'1110.8
2014-Jun-24 17:33S 30°02' E 031°10'1010.0
2014-Jun-24 16:33S 29°53' E 031°14'8 8.5
2014-Jun-24 15:33S 29°44' E 031°15'3 3.2
2014-Jun-24 14:30S 29°43' E 031°11'0 0.0
2014-Jun-24 13:30S 29°43' E 031°11'0 0.0
2014-Jun-24 12:30S 29°43' E 031°11'0 0.0
2014-Jun-24 11:30S 29°43' E 031°11'0 0.0
2014-Jun-24 10:30S 29°43' E 031°11'0 0.1
2014-Jun-24 09:30S 29°43' E 031°11'0 0.1
2014-Jun-24 08:30S 29°43' E 031°11'0 0.0
2014-Jun-24 07:30S 29°43' E 031°11'0 0.0
2014-Jun-24 06:30S 29°43' E 031°11'0 0.0
2014-Jun-24 05:30S 29°43' E 031°11'0 0.0
2014-Jun-24 04:30S 29°43' E 031°11'0 0.1
2014-Jun-24 03:30S 29°43' E 031°11'0 0.0
2014-Jun-24 02:30S 29°43' E 031°11'0 0.0
2014-Jun-24 01:30S 29°43' E 031°11'0 0.1
2014-Jun-24 00:24S 29°43' E 031°11'0 0.1
2014-Jun-23 23:30S 29°43' E 031°11'0 0.0
2014-Jun-23 22:30S 29°43' E 031°11'0 0.0
2014-Jun-23 21:30S 29°43' E 031°11'0 0.0
2014-Jun-23 20:30S 29°43' E 031°11'0 0.0
2014-Jun-23 19:30S 29°43' E 031°11'0 0.0
2014-Jun-23 18:30S 29°43' E 031°11'0 0.0
2014-Jun-23 17:30S 29°43' E 031°11'0 0.0
2014-Jun-23 16:30S 29°43' E 031°11'0 0.0
2014-Jun-23 15:30S 29°43' E 031°11'0 0.1
2014-Jun-23 14:30S 29°43' E 031°11'0 0.0
2014-Jun-23 12:30S 29°43' E 031°11'0 0.0
2014-Jun-23 11:30S 29°43' E 031°11'0 0.0
2014-Jun-23 10:30S 29°43' E 031°11'0 0.0
2014-Jun-23 09:30S 29°43' E 031°11'0 0.0
2014-Jun-23 08:30S 29°43' E 031°11'0 0.0
2014-Jun-23 07:30S 29°43' E 031°11'0 0.1
2014-Jun-23 06:30S 29°43' E 031°11'0 0.0
2014-Jun-23 05:30S 29°43' E 031°11'0 0.0
2014-Jun-23 04:30S 29°43' E 031°11'0 0.0
2014-Jun-23 03:30S 29°43' E 031°11'0 0.0
2014-Jun-23 02:30S 29°43' E 031°11'0 0.0
2014-Jun-23 01:30S 29°43' E 031°11'0 0.0
2014-Jun-23 00:24S 29°43' E 031°11'0 0.0
2014-Jun-22 23:30S 29°43' E 031°11'0 0.0
2014-Jun-22 22:30S 29°43' E 031°11'0 0.0
2014-Jun-22 21:24S 29°43' E 031°11'0 0.0
2014-Jun-22 20:24S 29°43' E 031°11'0 0.0
2014-Jun-22 19:30S 29°43' E 031°11'0 0.0
2014-Jun-22 18:30S 29°43' E 031°11'0 0.0
2014-Jun-22 17:30S 29°43' E 031°11'0 0.0
2014-Jun-22 16:30S 29°43' E 031°11'0 0.0
2014-Jun-22 15:30S 29°43' E 031°11'0 0.0
2014-Jun-22 14:30S 29°43' E 031°11'0 0.0
2014-Jun-22 13:24S 29°43' E 031°11'0 0.0
2014-Jun-22 12:30S 29°43' E 031°11'0 0.0
2014-Jun-22 11:30S 29°43' E 031°11'0 0.0
2014-Jun-22 10:30S 29°43' E 031°11'0 0.0
2014-Jun-22 09:30S 29°43' E 031°11'0 0.0
2014-Jun-22 08:30S 29°43' E 031°11'0 0.0
2014-Jun-22 07:30S 29°43' E 031°11'0 0.0
2014-Jun-22 06:30S 29°43' E 031°11'0 0.0
2014-Jun-22 05:30S 29°43' E 031°11'0 0.0
2014-Jun-22 04:30S 29°44' E 031°11'0 0.0
2014-Jun-22 03:30S 29°44' E 031°11'0 0.0
2014-Jun-22 02:30S 29°44' E 031°11'0 0.0
2014-Jun-22 01:30S 29°44' E 031°11'0 0.0
2014-Jun-22 00:30S 29°44' E 031°11'0 0.0
2014-Jun-21 23:24S 29°43' E 031°11'0 0.0
2014-Jun-21 21:30S 29°43' E 031°11'0 0.0
2014-Jun-21 20:24S 29°43' E 031°11'0 0.0
2014-Jun-21 19:30S 29°43' E 031°11'0 0.0
2014-Jun-21 18:30S 29°43' E 031°11'0 0.0
2014-Jun-21 17:30S 29°43' E 031°11'0 0.0
2014-Jun-21 16:30S 29°43' E 031°11'0 0.0
2014-Jun-21 15:24S 29°43' E 031°11'0 0.0
2014-Jun-21 14:30S 29°43' E 031°11'0 0.0
2014-Jun-21 13:30S 29°43' E 031°11'0 0.0
2014-Jun-21 12:30S 29°43' E 031°11'0 0.0
2014-Jun-21 11:30S 29°43' E 031°11'0 0.0
2014-Jun-21 10:24S 29°43' E 031°11'0 0.0
2014-Jun-21 09:30S 29°43' E 031°11'0 0.0
2014-Jun-21 08:30S 29°43' E 031°11'0 0.0
2014-Jun-21 07:30S 29°43' E 031°11'0 0.0
2014-Jun-21 06:30S 29°43' E 031°11'0 0.0
2014-Jun-21 05:30S 29°43' E 031°11'0 0.0
2014-Jun-21 04:30S 29°43' E 031°11'0 0.0
2014-Jun-21 03:30S 29°43' E 031°11'0 0.0
2014-Jun-21 02:30S 29°43' E 031°11'0 0.0
2014-Jun-21 01:30S 29°43' E 031°11'0 0.0
2014-Jun-21 00:30S 29°43' E 031°11'0 0.0
2014-Jun-20 23:30S 29°43' E 031°11'0 0.0
2014-Jun-20 22:30S 29°43' E 031°11'0 0.0
2014-Jun-20 21:30S 29°43' E 031°11'0 0.0
2014-Jun-20 20:30S 29°43' E 031°11'0 0.0
2014-Jun-20 19:30S 29°43' E 031°11'0 0.0
2014-Jun-20 18:30S 29°43' E 031°11'0 0.0
2014-Jun-20 17:30S 29°43' E 031°11'0 0.0
2014-Jun-20 16:30S 29°43' E 031°11'0 0.0
2014-Jun-20 15:30S 29°43' E 031°11'0 0.0
2014-Jun-20 14:30S 29°43' E 031°11'0 0.0
2014-Jun-20 13:30S 29°43' E 031°11'0 0.0
2014-Jun-20 12:30S 29°43' E 031°11'0 0.0
2014-Jun-20 11:30S 29°43' E 031°11'0 0.0
2014-Jun-20 10:30S 29°43' E 031°11'0 0.0
2014-Jun-20 09:30S 29°43' E 031°11'0 0.0
2014-Jun-20 08:30S 29°43' E 031°11'0 0.0
2014-Jun-20 07:30S 29°43' E 031°11'0 0.0
2014-Jun-20 06:30S 29°43' E 031°11'0 0.1
2014-Jun-20 05:30S 29°43' E 031°11'0 0.0
2014-Jun-20 04:24S 29°43' E 031°11'0 0.0
2014-Jun-20 03:30S 29°43' E 031°11'0 0.1
2014-Jun-20 02:30S 29°43' E 031°11'0 0.1
2014-Jun-20 01:30S 29°43' E 031°11'0 0.1
2014-Jun-20 00:30S 29°43' E 031°11'0 0.1
2014-Jun-19 23:30S 29°43' E 031°11'0 0.0
2014-Jun-19 22:30S 29°43' E 031°11'0 0.0
2014-Jun-19 21:30S 29°43' E 031°11'0 0.0
2014-Jun-19 20:30S 29°43' E 031°11'0 0.1
2014-Jun-19 19:30S 29°43' E 031°11'0 0.0
2014-Jun-19 18:30S 29°43' E 031°11'0 0.1
2014-Jun-19 17:30S 29°43' E 031°11'0 0.1
2014-Jun-19 16:30S 29°43' E 031°11'0 0.1
2014-Jun-19 15:30S 29°43' E 031°11'0 0.1
2014-Jun-19 14:30S 29°43' E 031°11'0 0.0
2014-Jun-19 13:30S 29°43' E 031°11'0 0.0
2014-Jun-19 12:30S 29°43' E 031°11'0 0.1
2014-Jun-19 11:30S 29°43' E 031°11'0 0.0
2014-Jun-19 10:30S 29°43' E 031°11'0 0.1
2014-Jun-19 09:30S 29°43' E 031°11'0 0.0
2014-Jun-19 08:30S 29°43' E 031°11'0 0.1
2014-Jun-19 07:30S 29°43' E 031°11'0 0.0
2014-Jun-19 06:30S 29°43' E 031°11'0 0.0
2014-Jun-19 05:30S 29°43' E 031°11'0 0.0
2014-Jun-19 04:30S 29°43' E 031°11'0 0.0
2014-Jun-19 02:30S 29°43' E 031°11'0 0.0
2014-Jun-19 01:30S 29°43' E 031°11'0 0.0
2014-Jun-19 00:30S 29°43' E 031°11'0 0.0
2014-Jun-18 23:30S 29°43' E 031°11'0 0.0
2014-Jun-18 22:30S 29°43' E 031°11'0 0.0
2014-Jun-18 21:33S 29°43' E 031°11'0 0.0
2014-Jun-18 20:30S 29°43' E 031°11'0 0.1
2014-Jun-18 19:30S 29°43' E 031°11'0 0.1
2014-Jun-18 18:30S 29°43' E 031°11'0 0.0
2014-Jun-18 17:30S 29°43' E 031°11'0 0.4
2014-Jun-18 16:30S 29°44' E 031°11'0 0.0
2014-Jun-18 15:30S 29°44' E 031°11'0 0.0
2014-Jun-18 14:30S 29°44' E 031°11'0 0.0
2014-Jun-18 13:06S 29°44' E 031°11'0 0.0
2014-Jun-18 12:30S 29°44' E 031°11'0 0.0
2014-Jun-18 11:24S 29°43' E 031°11'0 0.0
2014-Jun-18 10:30S 29°44' E 031°11'0 0.1
2014-Jun-18 09:30S 29°43' E 031°11'0 0.0
2014-Jun-18 08:30S 29°43' E 031°11'0 0.0
2014-Jun-18 07:30S 29°43' E 031°11'0 0.0
2014-Jun-18 06:30S 29°43' E 031°11'0 0.0
2014-Jun-18 05:30S 29°43' E 031°11'0 0.0
2014-Jun-18 04:30S 29°43' E 031°11'0 0.0
2014-Jun-18 03:30S 29°43' E 031°11'0 0.0
2014-Jun-18 02:30S 29°43' E 031°11'0 0.0
2014-Jun-18 01:30S 29°43' E 031°11'0 0.1
2014-Jun-18 00:30S 29°43' E 031°11'0 0.0
2014-Jun-17 23:30S 29°43' E 031°11'0 0.0
2014-Jun-17 22:24S 29°43' E 031°11'0 0.0
2014-Jun-17 21:30S 29°43' E 031°11'0 0.0
2014-Jun-17 20:30S 29°43' E 031°11'0 0.0
2014-Jun-17 19:30S 29°43' E 031°11'0 0.0
2014-Jun-17 18:30S 29°43' E 031°11'0 0.0
2014-Jun-17 17:30S 29°43' E 031°11'0 0.1
2014-Jun-17 16:30S 29°43' E 031°11'0 0.1
2014-Jun-17 15:33S 29°43' E 031°11'4 4.3
2014-Jun-17 14:33S 29°43' E 031°16'8 7.7
2014-Jun-17 13:33S 29°37' E 031°22'4 3.5
2014-Jun-17 12:19S 29°34' E 031°25'0 0.1
2014-Jun-17 11:31S 29°34' E 031°25'0 0.0
2014-Jun-17 10:25S 29°34' E 031°25'0 0.1
2014-Jun-17 09:31S 29°34' E 031°25'0 0.1
2014-Jun-17 08:31S 29°34' E 031°25'0 0.0
2014-Jun-17 07:31S 29°34' E 031°25'0 0.0
2014-Jun-17 06:31S 29°34' E 031°25'0 0.1
2014-Jun-17 05:31S 29°34' E 031°25'0 0.0
2014-Jun-17 04:31S 29°34' E 031°25'0 0.0
2014-Jun-17 03:31S 29°34' E 031°25'0 0.0
2014-Jun-17 02:31S 29°34' E 031°25'0 0.1
2014-Jun-17 01:31S 29°34' E 031°25'0 0.0
2014-Jun-17 00:31S 29°34' E 031°25'0 0.0
2014-Jun-16 23:31S 29°34' E 031°25'0 0.1
2014-Jun-16 22:31S 29°34' E 031°25'0 0.0
2014-Jun-16 21:31S 29°34' E 031°25'0 0.0
2014-Jun-16 20:31S 29°34' E 031°25'0 0.0
2014-Jun-16 19:25S 29°34' E 031°25'0 0.0
2014-Jun-16 18:25S 29°34' E 031°25'0 0.0
2014-Jun-16 17:31S 29°34' E 031°25'0 0.0
2014-Jun-16 16:31S 29°34' E 031°25'0 0.0
2014-Jun-16 15:31S 29°34' E 031°25'0 0.0
2014-Jun-16 14:31S 29°34' E 031°25'  

Dump ship's entire track history